createdAt,value
2019-02-15T00:01:45.672Z,96.50
2019-02-15T00:06:43.694Z,65.80
2019-02-15T00:09:12.972Z,75.30
2019-02-15T00:11:42.296Z,86.60
2019-02-15T00:14:11.624Z,67.30
2019-02-15T00:16:40.911Z,82.10
2019-02-15T00:21:52.900Z,69.70
2019-02-15T00:26:51.458Z,85.80
2019-02-15T00:29:21.833Z,82.10
2019-02-15T00:31:51.196Z,59.70
2019-02-15T00:34:20.550Z,59.70
2019-02-15T00:36:49.868Z,82.60
2019-02-15T00:39:19.174Z,59.70
2019-02-15T00:41:48.565Z,70.50
2019-02-15T00:44:17.892Z,92.20
2019-02-15T00:46:57.410Z,83.70
2019-02-15T00:49:48.703Z,97.30
2019-02-15T00:52:36.964Z,60.40
2019-02-15T00:55:25.730Z,61.00
2019-02-15T00:58:17.038Z,91.20
2019-02-15T01:01:00.763Z,84.20
2019-02-15T01:03:47.876Z,60.90
2019-02-15T01:06:39.117Z,61.10
2019-02-15T01:12:08.033Z,61.50
2019-02-15T01:14:37.349Z,67.70
2019-02-15T01:17:08.266Z,61.80
2019-02-15T01:19:37.544Z,61.70
2019-02-15T01:22:06.826Z,61.90
2019-02-15T01:24:36.181Z,71.10
2019-02-15T01:27:17.526Z,61.80
2019-02-15T01:29:56.692Z,61.60
2019-02-15T01:32:36.516Z,62.80
2019-02-15T01:35:31.068Z,64.00
2019-02-15T01:38:16.024Z,84.60
2019-02-15T01:41:07.071Z,62.20
2019-02-15T01:43:55.344Z,93.40
2019-02-15T01:46:31.389Z,62.40
2019-02-15T01:49:00.677Z,90.20
2019-02-15T01:51:30.008Z,71.60
2019-02-15T01:53:59.419Z,63.00
2019-02-15T01:56:28.739Z,63.30
2019-02-15T01:58:58.059Z,63.40
2019-02-15T02:03:58.224Z,98.30
2019-02-15T02:06:27.609Z,63.20
2019-02-15T02:08:56.995Z,99.90
2019-02-15T02:11:26.336Z,65.90
2019-02-15T02:13:55.628Z,64.10
2019-02-15T02:16:24.959Z,63.90
2019-02-15T02:18:54.232Z,64.30
2019-02-15T02:21:23.555Z,64.40
2019-02-15T02:23:52.835Z,64.50
2019-02-15T02:26:22.152Z,64.60
2019-02-15T02:28:51.440Z,64.80
2019-02-15T02:31:21.412Z,65.10
2019-02-15T02:33:51.597Z,65.40
2019-02-15T02:36:20.941Z,65.50
2019-02-15T02:38:50.216Z,99.90
2019-02-15T02:43:48.228Z,99.80
2019-02-15T02:46:17.553Z,65.70
2019-02-15T02:48:46.967Z,66.60
2019-02-15T02:51:16.247Z,67.00
2019-02-15T02:53:45.649Z,99.60
2019-02-15T02:56:14.926Z,68.20
2019-02-15T02:58:44.230Z,95.60
2019-02-15T03:01:13.508Z,66.80
2019-02-15T03:03:42.832Z,98.70
2019-02-15T03:06:12.188Z,67.10
2019-02-15T03:08:41.509Z,67.10
2019-02-15T03:11:10.808Z,68.00
2019-02-15T03:13:40.141Z,67.40
2019-02-15T03:18:38.213Z,66.60
2019-02-15T03:21:07.760Z,66.50
2019-02-15T03:23:37.127Z,75.60
2019-02-15T03:26:06.526Z,67.10
2019-02-15T03:28:35.792Z,67.00
2019-02-15T03:31:05.224Z,92.50
2019-02-15T03:33:34.629Z,66.30
2019-02-15T03:36:05.602Z,67.00
2019-02-15T03:38:59.796Z,76.50
2019-02-15T03:41:31.240Z,66.30
2019-02-15T03:44:00.637Z,66.60
2019-02-15T03:46:30.480Z,66.50
2019-02-15T03:48:59.792Z,67.50
2019-02-15T03:51:29.099Z,65.90
2019-02-15T03:53:58.497Z,66.60
2019-02-15T03:56:27.815Z,66.70
2019-02-15T03:58:57.165Z,66.80
2019-02-15T04:01:27.030Z,67.20
2019-02-15T04:03:56.420Z,67.40
2019-02-15T04:06:25.700Z,67.50
2019-02-15T04:08:54.992Z,67.60
2019-02-15T04:11:24.401Z,67.60
2019-02-15T04:13:53.690Z,90.50
2019-02-15T04:16:22.971Z,66.00
2019-02-15T04:18:52.291Z,66.60
2019-02-15T04:21:21.730Z,66.70
2019-02-15T04:23:51.048Z,66.60
2019-02-15T04:26:20.357Z,66.80
2019-02-15T04:28:49.647Z,67.00
2019-02-15T04:31:18.992Z,67.30
2019-02-15T04:33:48.344Z,87.80
2019-02-15T04:36:17.735Z,67.00
2019-02-15T04:38:47.064Z,67.60
2019-02-15T04:41:16.349Z,68.10
2019-02-15T04:43:45.651Z,68.00
2019-02-15T04:46:14.988Z,67.80
2019-02-15T04:48:44.277Z,67.50
2019-02-15T04:51:13.564Z,67.20
2019-02-15T04:56:11.614Z,66.60
2019-02-15T04:58:40.968Z,67.40
2019-02-15T05:01:10.257Z,67.30
2019-02-15T05:03:39.580Z,67.40
2019-02-15T05:06:08.887Z,67.40
2019-02-15T05:08:38.220Z,68.30
2019-02-15T05:11:07.546Z,67.70
2019-02-15T05:13:36.830Z,68.00
2019-02-15T05:16:06.164Z,68.10
2019-02-15T05:18:35.444Z,68.30
2019-02-15T05:21:04.747Z,68.40
2019-02-15T05:23:34.114Z,68.30
2019-02-15T05:26:03.446Z,68.40
2019-02-15T05:28:32.799Z,68.00
2019-02-15T05:31:02.081Z,67.90
2019-02-15T05:33:31.408Z,68.30
2019-02-15T05:36:00.706Z,68.10
2019-02-15T05:38:30.038Z,68.20
2019-02-15T05:40:59.362Z,68.50
2019-02-15T05:43:28.645Z,68.30
2019-02-15T05:45:59.057Z,68.40
2019-02-15T05:48:28.343Z,68.50
2019-02-15T05:50:57.621Z,68.50
2019-02-15T05:53:26.927Z,68.70
2019-02-15T05:55:56.254Z,68.60
2019-02-15T05:58:25.524Z,68.70
2019-02-15T06:00:54.849Z,68.50
2019-02-15T06:03:24.121Z,69.80
2019-02-15T06:05:53.419Z,69.00
2019-02-15T06:08:22.727Z,69.10
2019-02-15T06:10:52.124Z,69.40
2019-02-15T06:13:21.412Z,94.10
2019-02-15T06:15:50.698Z,68.90
2019-02-15T06:18:20.021Z,69.60
2019-02-15T06:20:49.337Z,69.60
2019-02-15T06:23:18.656Z,68.80
2019-02-15T06:25:48.102Z,76.10
2019-02-15T06:28:17.937Z,97.70
2019-02-15T06:30:47.289Z,68.60
2019-02-15T06:33:16.598Z,99.90
2019-02-15T06:35:46.002Z,68.60
2019-02-15T06:38:15.322Z,68.90
2019-02-15T06:40:44.586Z,68.70
2019-02-15T06:43:13.895Z,67.90
2019-02-15T06:45:43.265Z,99.90
2019-02-15T06:48:12.595Z,67.70
2019-02-15T06:50:41.924Z,68.40
2019-02-15T06:55:39.872Z,67.40
2019-02-15T06:58:09.191Z,68.00
2019-02-15T07:00:56.466Z,68.00
2019-02-15T07:03:40.217Z,68.10
2019-02-15T07:06:10.357Z,68.20
2019-02-15T07:08:39.634Z,79.10
2019-02-15T07:11:08.980Z,67.90
2019-02-15T07:13:38.326Z,67.70
2019-02-15T07:16:07.659Z,67.60
2019-02-15T07:18:36.936Z,67.80
2019-02-15T07:21:06.293Z,86.10
2019-02-15T07:23:35.584Z,67.30
2019-02-15T07:26:04.983Z,67.80
2019-02-15T07:28:34.281Z,67.50
2019-02-15T07:31:03.611Z,67.30
2019-02-15T07:33:32.916Z,67.40
2019-02-15T07:36:02.198Z,67.20
2019-02-15T07:38:31.528Z,67.20
2019-02-15T07:41:00.807Z,67.40
2019-02-15T07:43:30.135Z,66.80
2019-02-15T07:45:59.416Z,67.30
2019-02-15T07:48:28.761Z,67.10
2019-02-15T07:50:58.112Z,67.10
2019-02-15T07:53:27.488Z,65.60
2019-02-15T07:55:56.816Z,66.20
2019-02-15T07:58:26.126Z,66.00
2019-02-15T08:00:55.476Z,65.80
2019-02-15T08:03:24.777Z,65.60
2019-02-15T08:05:54.087Z,65.10
2019-02-15T08:08:23.469Z,64.90
2019-02-15T08:10:52.841Z,69.70
2019-02-15T08:13:22.163Z,87.70
2019-02-15T08:20:50.904Z,81.70
2019-02-15T08:23:20.306Z,63.90
2019-02-15T08:25:49.620Z,63.40
2019-02-15T08:28:18.970Z,63.70
2019-02-15T08:30:48.334Z,62.90
2019-02-15T08:33:17.724Z,63.60
2019-02-15T08:35:47.034Z,63.20
2019-02-15T08:38:16.327Z,62.30
2019-02-15T08:40:45.655Z,62.80
2019-02-15T08:43:14.994Z,62.80
2019-02-15T08:45:44.355Z,62.90
2019-02-15T08:48:13.671Z,63.40
2019-02-15T08:50:43.053Z,63.20
2019-02-15T08:53:12.344Z,62.60
2019-02-15T08:55:41.699Z,62.50
2019-02-15T08:58:11.473Z,62.50
2019-02-15T09:00:41.491Z,62.40
2019-02-15T09:03:10.792Z,89.50
2019-02-15T09:05:40.077Z,62.80
2019-02-15T09:08:09.397Z,71.70
2019-02-15T09:10:38.678Z,85.30
2019-02-15T09:13:07.995Z,97.40
2019-02-15T09:15:37.280Z,61.70
2019-02-15T09:18:06.603Z,62.10
2019-02-15T09:20:36.012Z,62.00
2019-02-15T09:23:05.316Z,95.10
2019-02-15T09:25:34.653Z,61.30
2019-02-15T09:28:14.616Z,61.90
2019-02-15T09:30:45.842Z,61.50
2019-02-15T09:33:15.676Z,61.80
2019-02-15T09:35:44.968Z,61.70
2019-02-15T09:38:14.280Z,61.10
2019-02-15T09:40:43.624Z,62.00
2019-02-15T09:43:12.952Z,61.00
2019-02-15T09:45:42.359Z,60.80
2019-02-15T09:48:11.728Z,60.40
2019-02-15T09:50:41.024Z,60.20
2019-02-15T09:53:10.408Z,59.40
2019-02-15T09:55:40.036Z,59.10
2019-02-15T09:58:09.316Z,59.40
2019-02-15T10:00:38.637Z,59.40
2019-02-15T10:03:07.954Z,58.50
2019-02-15T10:05:37.279Z,58.50
2019-02-15T10:08:06.612Z,58.50
2019-02-15T10:13:04.638Z,56.00
2019-02-15T10:15:34.003Z,91.60
2019-02-15T10:20:32.016Z,68.10
2019-02-15T10:23:01.336Z,92.80
2019-02-15T10:25:30.618Z,55.10
2019-02-15T10:27:59.942Z,55.50
2019-02-15T10:30:29.287Z,55.20
2019-02-15T10:32:58.769Z,55.50
2019-02-15T10:35:28.156Z,55.10
2019-02-15T10:37:57.460Z,53.80
2019-02-15T10:40:26.813Z,53.30
2019-02-15T10:42:56.118Z,51.60
2019-02-15T10:45:25.407Z,49.60
2019-02-15T10:47:54.736Z,83.60
2019-02-15T10:50:24.025Z,50.90
2019-02-15T10:52:53.448Z,51.40
2019-02-15T10:55:22.804Z,48.60
2019-02-15T10:57:52.189Z,48.80
2019-02-15T11:00:22.340Z,47.70
2019-02-15T11:02:51.668Z,48.10
2019-02-15T11:05:20.949Z,47.00
2019-02-15T11:07:50.238Z,46.80
2019-02-15T11:10:19.583Z,45.80
2019-02-15T11:12:48.876Z,46.40
2019-02-15T11:15:18.273Z,46.80
2019-02-15T11:17:47.628Z,46.90
2019-02-15T11:22:46.449Z,44.20
2019-02-15T11:25:16.228Z,45.20
2019-02-15T11:27:45.543Z,45.40
2019-02-15T11:30:15.162Z,45.80
2019-02-15T11:32:44.440Z,45.30
2019-02-15T11:35:13.732Z,44.00
2019-02-15T11:37:43.023Z,44.50
2019-02-15T11:40:13.263Z,58.80
2019-02-15T11:42:42.615Z,43.90
2019-02-15T11:45:12.495Z,59.50
2019-02-15T11:47:41.912Z,43.50
2019-02-15T11:50:12.693Z,44.30
2019-02-15T11:52:41.989Z,43.60
2019-02-15T11:55:11.430Z,44.40
2019-02-15T11:57:40.993Z,43.70
2019-02-15T12:00:14.636Z,42.70
2019-02-15T12:02:44.740Z,42.30
2019-02-15T12:05:14.031Z,41.70
2019-02-15T12:07:43.448Z,41.90
2019-02-15T12:10:13.284Z,42.80
2019-02-15T12:12:42.580Z,40.80
2019-02-15T12:15:12.260Z,40.40
2019-02-15T12:17:41.545Z,61.20
2019-02-15T12:20:11.781Z,39.10
2019-02-15T12:22:41.065Z,39.40
2019-02-15T12:25:10.772Z,38.90
2019-02-15T12:27:40.048Z,39.10
2019-02-15T12:32:39.288Z,36.90
2019-02-15T12:35:09.316Z,37.80
2019-02-15T12:37:38.622Z,47.20
2019-02-15T12:40:08.671Z,35.60
2019-02-15T12:42:38.036Z,37.70
2019-02-15T12:45:08.240Z,45.00
2019-02-15T12:47:37.563Z,36.00
2019-02-15T12:50:09.273Z,34.80
2019-02-15T12:52:38.598Z,34.60
2019-02-15T12:55:08.180Z,35.10
2019-02-15T12:57:37.539Z,33.90
2019-02-15T13:00:09.268Z,33.40
2019-02-15T13:02:38.540Z,33.90
2019-02-15T13:05:08.654Z,34.60
2019-02-15T13:07:37.967Z,35.90
2019-02-15T13:10:09.024Z,31.90
2019-02-15T13:12:38.325Z,33.20
2019-02-15T13:15:08.167Z,34.00
2019-02-15T13:17:37.432Z,31.80
2019-02-15T13:20:07.585Z,31.60
2019-02-15T13:22:36.861Z,52.80
2019-02-15T13:25:06.460Z,29.80
2019-02-15T13:27:35.772Z,31.50
2019-02-15T13:30:05.941Z,30.20
2019-02-15T13:32:35.302Z,30.90
2019-02-15T13:35:04.770Z,49.90
2019-02-15T13:37:34.111Z,56.00
2019-02-15T13:42:32.109Z,46.60
2019-02-15T13:45:01.436Z,63.90
2019-02-15T13:47:34.683Z,28.50
2019-02-15T13:50:01.816Z,28.20
2019-02-15T13:52:31.148Z,29.30
2019-02-15T13:55:00.436Z,28.10
2019-02-15T13:59:58.481Z,26.70
2019-02-15T14:02:27.758Z,27.90
2019-02-15T14:04:57.059Z,27.60
2019-02-15T14:07:26.376Z,27.30
2019-02-15T14:09:55.698Z,27.40
2019-02-15T14:12:25.011Z,26.40
2019-02-15T14:14:54.289Z,26.60
2019-02-15T14:17:23.598Z,26.00
2019-02-15T14:19:52.913Z,26.60
2019-02-15T14:22:22.218Z,24.10
2019-02-15T14:24:51.704Z,25.10
2019-02-15T14:27:20.996Z,25.60
2019-02-15T14:29:50.282Z,26.30
2019-02-15T14:32:19.612Z,26.00
2019-02-15T14:34:48.884Z,26.10
2019-02-15T14:37:18.245Z,24.70
2019-02-15T14:39:47.520Z,27.00
2019-02-15T14:42:16.869Z,26.40
2019-02-15T14:44:46.231Z,24.60
2019-02-15T14:47:15.560Z,25.00
2019-02-15T14:49:44.875Z,25.60
2019-02-15T14:52:14.173Z,25.10
2019-02-15T14:54:43.480Z,26.20
2019-02-15T14:57:12.818Z,26.20
2019-02-15T14:59:42.133Z,26.30
2019-02-15T15:02:11.480Z,27.10
2019-02-15T15:04:41.427Z,28.00
2019-02-15T15:07:11.392Z,28.30
2019-02-15T15:09:40.683Z,28.20
2019-02-15T15:12:10.001Z,28.70
2019-02-15T15:14:39.286Z,28.70
2019-02-15T15:17:08.676Z,29.70
2019-02-15T15:19:37.984Z,28.50
2019-02-15T15:22:07.312Z,28.30
2019-02-15T15:24:36.734Z,30.00
2019-02-15T15:27:06.007Z,48.90
2019-02-15T15:29:35.348Z,48.80
2019-02-15T15:32:04.624Z,47.10
2019-02-15T15:34:33.956Z,53.60
2019-02-15T15:39:31.942Z,69.90
2019-02-15T15:42:01.281Z,65.20
2019-02-15T15:44:30.636Z,38.60
2019-02-15T15:46:59.947Z,66.80
2019-02-15T15:49:29.272Z,86.90
2019-02-15T15:54:27.270Z,46.50
2019-02-15T15:56:56.549Z,42.00
2019-02-15T15:59:25.867Z,42.90
2019-02-15T16:01:55.142Z,43.70
2019-02-15T16:04:24.480Z,47.50
2019-02-15T16:06:53.796Z,44.50
2019-02-15T16:09:23.064Z,45.20
2019-02-15T16:11:52.985Z,46.30
2019-02-15T16:14:22.265Z,45.90
2019-02-15T16:16:51.565Z,46.30
2019-02-15T16:19:20.880Z,46.40
2019-02-15T16:21:50.222Z,46.90
2019-02-15T16:24:19.492Z,47.30
2019-02-15T16:26:48.772Z,48.50
2019-02-15T16:29:18.100Z,48.70
2019-02-15T16:31:48.420Z,48.70
2019-02-15T16:34:17.990Z,49.30
2019-02-15T16:36:47.845Z,49.50
2019-02-15T16:39:17.167Z,50.00
2019-02-15T16:41:46.444Z,50.40
2019-02-15T16:44:15.797Z,51.00
2019-02-15T16:46:45.104Z,51.40
2019-02-15T16:49:14.421Z,51.80
2019-02-15T16:51:43.713Z,51.60
2019-02-15T16:54:13.072Z,51.60
2019-02-15T16:56:42.561Z,51.20
2019-02-15T16:59:11.878Z,51.90
2019-02-15T17:01:41.153Z,51.20
2019-02-15T17:04:10.477Z,51.30
2019-02-15T17:06:39.740Z,51.00
2019-02-15T17:09:17.025Z,51.40
2019-02-15T17:11:46.304Z,51.00
2019-02-15T17:14:15.660Z,50.80
2019-02-15T17:16:45.060Z,51.00
2019-02-15T17:19:14.353Z,51.40
2019-02-15T17:21:43.644Z,51.50
2019-02-15T17:24:12.973Z,51.30
2019-02-15T17:26:42.264Z,51.40
2019-02-15T17:29:11.596Z,50.30
2019-02-15T17:31:40.861Z,50.70
2019-02-15T17:34:11.252Z,50.90
2019-02-15T17:36:40.535Z,50.70
2019-02-15T17:39:10.243Z,50.80
2019-02-15T17:41:39.580Z,51.20
2019-02-15T17:44:08.902Z,51.60
2019-02-15T17:46:38.215Z,51.20
2019-02-15T17:49:07.498Z,51.50
2019-02-15T17:51:36.820Z,51.60
2019-02-15T17:54:06.223Z,52.70
2019-02-15T17:56:35.637Z,53.50
2019-02-15T17:59:04.917Z,53.80
2019-02-15T18:01:35.338Z,54.10
2019-02-15T18:04:04.676Z,54.00
2019-02-15T18:06:34.012Z,55.00
2019-02-15T18:09:03.408Z,55.20
2019-02-15T18:11:32.691Z,55.50
2019-02-15T18:14:02.078Z,55.50
2019-02-15T18:16:31.355Z,55.30
2019-02-15T18:19:09.640Z,55.30
2019-02-15T18:21:31.716Z,55.60
2019-02-15T18:24:01.038Z,55.70
2019-02-15T18:26:30.324Z,55.80
2019-02-15T18:28:59.604Z,55.80
2019-02-15T18:31:28.921Z,55.70
2019-02-15T18:33:58.236Z,56.10
2019-02-15T18:36:27.529Z,56.30
2019-02-15T18:38:56.846Z,56.40
2019-02-15T18:41:27.240Z,56.60
2019-02-15T18:43:56.565Z,56.70
2019-02-15T18:46:25.842Z,57.20
2019-02-15T18:48:55.152Z,57.00
2019-02-15T18:51:24.484Z,57.30
2019-02-15T18:53:53.793Z,57.30
2019-02-15T18:56:23.127Z,57.60
2019-02-15T18:58:52.444Z,57.70
2019-02-15T19:01:21.793Z,58.10
2019-02-15T19:03:51.108Z,58.20
2019-02-15T19:06:20.441Z,58.10
2019-02-15T19:08:49.704Z,57.80
2019-02-15T19:11:19.040Z,58.30
2019-02-15T19:13:48.332Z,58.20
2019-02-15T19:16:17.731Z,58.60
2019-02-15T19:18:47.060Z,58.60
2019-02-15T19:21:16.404Z,58.80
2019-02-15T19:23:45.748Z,58.90
2019-02-15T19:26:15.064Z,59.40
2019-02-15T19:28:44.390Z,59.10
2019-02-15T19:31:13.717Z,59.90
2019-02-15T19:33:43.116Z,60.50
2019-02-15T19:36:12.392Z,60.50
2019-02-15T19:38:41.712Z,59.60
2019-02-15T19:41:11.049Z,59.90
2019-02-15T19:43:40.329Z,59.80
2019-02-15T19:46:09.663Z,59.80
2019-02-15T19:48:38.945Z,59.70
2019-02-15T19:51:08.270Z,61.00
2019-02-15T19:53:37.608Z,61.80
2019-02-15T19:56:07.000Z,60.70
2019-02-15T19:58:36.333Z,60.80
2019-02-15T20:01:05.651Z,60.50
2019-02-15T20:03:34.928Z,61.30
2019-02-15T20:06:04.255Z,61.20
2019-02-15T20:08:33.535Z,61.20
2019-02-15T20:11:02.852Z,61.30
2019-02-15T20:13:32.141Z,61.20
2019-02-15T20:16:01.452Z,61.80
2019-02-15T20:18:32.237Z,63.00
2019-02-15T20:21:01.792Z,63.10
2019-02-15T20:23:31.070Z,63.70
2019-02-15T20:26:01.165Z,64.40
2019-02-15T20:28:31.120Z,64.90
2019-02-15T20:31:00.793Z,64.90
2019-02-15T20:33:30.334Z,63.70
2019-02-15T20:36:00.260Z,63.70
2019-02-15T20:38:29.713Z,63.70
2019-02-15T20:41:00.500Z,63.30
2019-02-15T20:43:30.068Z,63.30
2019-02-15T20:45:59.536Z,63.40
2019-02-15T20:48:29.452Z,63.10
2019-02-15T20:50:58.933Z,63.10
2019-02-15T20:53:28.211Z,62.90
2019-02-15T20:55:57.553Z,63.70
2019-02-15T20:58:26.833Z,62.90
2019-02-15T21:00:56.400Z,63.70
2019-02-15T21:03:25.903Z,63.60
2019-02-15T21:05:55.585Z,63.50
2019-02-15T21:08:26.616Z,63.80
2019-02-15T21:10:57.806Z,64.60
2019-02-15T21:13:27.177Z,64.20
2019-02-15T21:15:56.458Z,65.10
2019-02-15T21:18:28.719Z,64.50
2019-02-15T21:20:58.036Z,64.70
2019-02-15T21:23:27.320Z,64.30
2019-02-15T21:25:56.732Z,64.30
2019-02-15T21:28:27.120Z,64.00
2019-02-15T21:30:56.516Z,65.00
2019-02-15T21:33:25.967Z,65.60
2019-02-15T21:35:55.344Z,66.30
2019-02-15T21:38:24.650Z,65.00
2019-02-15T21:40:54.227Z,64.70
2019-02-15T21:43:23.511Z,64.50
2019-02-15T21:45:53.234Z,65.50
2019-02-15T21:48:22.522Z,66.20
2019-02-15T21:50:51.811Z,65.50
2019-02-15T21:53:21.136Z,65.10
2019-02-15T21:55:50.424Z,65.00
2019-02-15T21:58:19.756Z,64.80
2019-02-15T22:00:49.105Z,65.30
2019-02-15T22:03:18.694Z,65.10
2019-02-15T22:05:48.086Z,65.20
2019-02-15T22:08:18.008Z,65.40
2019-02-15T22:10:48.202Z,65.30
2019-02-15T22:13:17.910Z,65.30
2019-02-15T22:15:47.444Z,65.70
2019-02-15T22:18:16.717Z,66.30
2019-02-15T22:20:46.157Z,66.40
2019-02-15T22:23:15.540Z,66.00
2019-02-15T22:25:44.929Z,66.60
2019-02-15T22:28:14.253Z,66.20
2019-02-15T22:30:43.896Z,65.90
2019-02-15T22:33:13.285Z,67.80
2019-02-15T22:35:42.680Z,68.20
2019-02-15T22:38:11.989Z,66.80
2019-02-15T22:40:43.072Z,66.60
2019-02-15T22:43:20.812Z,66.40
2019-02-15T22:45:50.124Z,66.30
2019-02-15T22:48:19.470Z,66.20
2019-02-15T22:50:48.801Z,66.50
2019-02-15T22:53:18.060Z,66.30
2019-02-15T22:55:47.344Z,66.40
2019-02-15T22:58:16.675Z,66.20
2019-02-15T23:00:51.986Z,65.70
2019-02-15T23:03:24.621Z,66.10
2019-02-15T23:05:53.908Z,66.10
2019-02-15T23:08:23.218Z,66.40
2019-02-15T23:10:52.488Z,66.20
2019-02-15T23:13:21.792Z,66.40
2019-02-15T23:15:51.064Z,66.30
2019-02-15T23:18:20.534Z,66.20
2019-02-15T23:20:49.840Z,66.00
2019-02-15T23:23:19.114Z,66.00
2019-02-15T23:25:48.434Z,66.60
2019-02-15T23:28:17.708Z,66.20
2019-02-15T23:30:46.986Z,66.30
2019-02-15T23:33:16.306Z,66.20
2019-02-15T23:35:45.587Z,67.00
2019-02-15T23:38:14.952Z,66.40
2019-02-15T23:40:44.237Z,66.50
2019-02-15T23:43:13.548Z,66.30
2019-02-15T23:45:44.891Z,66.00
2019-02-15T23:48:13.869Z,67.40
2019-02-15T23:50:43.148Z,66.50
2019-02-15T23:53:12.434Z,66.40
2019-02-15T23:55:41.722Z,67.20
2019-02-15T23:58:11.060Z,67.00
